sensor_id;sensor_type;location;lat;lon;timestamp;P1;durP1;ratioP1;P2;durP2;ratioP2
20114;SDS011;10218;42.874;25.320;2024-01-15T00:01:10;30.03;;;14.63;;
20114;SDS011;10218;42.874;25.320;2024-01-15T00:03:38;28.80;;;12.93;;
20114;SDS011;10218;42.874;25.320;2024-01-15T00:06:05;32.33;;;16.63;;
20114;SDS011;10218;42.874;25.320;2024-01-15T00:08:32;33.30;;;15.23;;
20114;SDS011;10218;42.874;25.320;2024-01-15T00:10:59;27.83;;;13.40;;
20114;SDS011;10218;42.874;25.320;2024-01-15T00:13:26;25.03;;;12.17;;
20114;SDS011;10218;42.874;25.320;2024-01-15T00:15:53;21.23;;;10.50;;
20114;SDS011;10218;42.874;25.320;2024-01-15T00:18:20;20.50;;;10.37;;
20114;SDS011;10218;42.874;25.320;2024-01-15T00:20:47;30.50;;;13.93;;
20114;SDS011;10218;42.874;25.320;2024-01-15T00:23:14;34.77;;;16.03;;
20114;SDS011;10218;42.874;25.320;2024-01-15T00:25:42;32.80;;;15.43;;
20114;SDS011;10218;42.874;25.320;2024-01-15T00:28:09;35.07;;;16.57;;
20114;SDS011;10218;42.874;25.320;2024-01-15T00:30:36;32.17;;;16.17;;
20114;SDS011;10218;42.874;25.320;2024-01-15T00:33:03;23.87;;;11.23;;
20114;SDS011;10218;42.874;25.320;2024-01-15T00:35:31;12.30;;;5.97;;
20114;SDS011;10218;42.874;25.320;2024-01-15T00:37:58;13.97;;;6.57;;
20114;SDS011;10218;42.874;25.320;2024-01-15T00:40:25;16.43;;;8.27;;
20114;SDS011;10218;42.874;25.320;2024-01-15T00:42:52;16.83;;;9.43;;
20114;SDS011;10218;42.874;25.320;2024-01-15T00:45:19;17.97;;;7.30;;
20114;SDS011;10218;42.874;25.320;2024-01-15T00:47:47;17.53;;;8.53;;
20114;SDS011;10218;42.874;25.320;2024-01-15T00:50:14;9.43;;;4.53;;
20114;SDS011;10218;42.874;25.320;2024-01-15T00:52:41;7.33;;;4.40;;
20114;SDS011;10218;42.874;25.320;2024-01-15T00:55:08;8.83;;;4.63;;
20114;SDS011;10218;42.874;25.320;2024-01-15T00:57:35;10.23;;;5.27;;
20114;SDS011;10218;42.874;25.320;2024-01-15T01:00:02;9.10;;;4.53;;
20114;SDS011;10218;42.874;25.320;2024-01-15T01:02:30;11.37;;;4.57;;
20114;SDS011;10218;42.874;25.320;2024-01-15T01:04:57;9.83;;;4.67;;
20114;SDS011;10218;42.874;25.320;2024-01-15T01:07:24;8.67;;;3.93;;
20114;SDS011;10218;42.874;25.320;2024-01-15T01:09:51;7.27;;;3.87;;
20114;SDS011;10218;42.874;25.320;2024-01-15T01:12:18;7.53;;;3.77;;
20114;SDS011;10218;42.874;25.320;2024-01-15T01:14:45;9.07;;;4.07;;
20114;SDS011;10218;42.874;25.320;2024-01-15T01:17:13;7.93;;;3.93;;
20114;SDS011;10218;42.874;25.320;2024-01-15T01:19:40;20.73;;;10.17;;
20114;SDS011;10218;42.874;25.320;2024-01-15T01:22:07;20.57;;;10.77;;
20114;SDS011;10218;42.874;25.320;2024-01-15T01:24:34;29.97;;;13.73;;
20114;SDS011;10218;42.874;25.320;2024-01-15T01:27:01;25.73;;;11.80;;
20114;SDS011;10218;42.874;25.320;2024-01-15T01:29:28;23.03;;;11.53;;
20114;SDS011;10218;42.874;25.320;2024-01-15T01:31:55;22.43;;;9.30;;
20114;SDS011;10218;42.874;25.320;2024-01-15T01:34:23;12.20;;;6.17;;
20114;SDS011;10218;42.874;25.320;2024-01-15T01:36:50;10.03;;;4.97;;
20114;SDS011;10218;42.874;25.320;2024-01-15T01:39:17;10.03;;;4.37;;
20114;SDS011;10218;42.874;25.320;2024-01-15T01:41:44;8.30;;;3.97;;
20114;SDS011;10218;42.874;25.320;2024-01-15T01:44:11;11.37;;;4.53;;
20114;SDS011;10218;42.874;25.320;2024-01-15T01:46:38;7.10;;;3.73;;
20114;SDS011;10218;42.874;25.320;2024-01-15T01:49:07;6.87;;;4.13;;
20114;SDS011;10218;42.874;25.320;2024-01-15T01:51:35;8.87;;;4.07;;
20114;SDS011;10218;42.874;25.320;2024-01-15T01:54:04;9.70;;;4.43;;
20114;SDS011;10218;42.874;25.320;2024-01-15T01:56:34;9.97;;;6.07;;
20114;SDS011;10218;42.874;25.320;2024-01-15T01:59:02;10.17;;;5.27;;
20114;SDS011;10218;42.874;25.320;2024-01-15T02:01:31;15.23;;;7.23;;
20114;SDS011;10218;42.874;25.320;2024-01-15T02:03:58;13.43;;;6.37;;
20114;SDS011;10218;42.874;25.320;2024-01-15T02:06:26;17.97;;;7.40;;
20114;SDS011;10218;42.874;25.320;2024-01-15T02:08:54;10.43;;;5.43;;
20114;SDS011;10218;42.874;25.320;2024-01-15T02:11:21;9.27;;;5.13;;
20114;SDS011;10218;42.874;25.320;2024-01-15T02:13:48;10.30;;;4.97;;
20114;SDS011;10218;42.874;25.320;2024-01-15T02:16:16;11.63;;;5.43;;
20114;SDS011;10218;42.874;25.320;2024-01-15T02:18:45;12.37;;;6.03;;
20114;SDS011;10218;42.874;25.320;2024-01-15T02:21:12;13.60;;;6.50;;
20114;SDS011;10218;42.874;25.320;2024-01-15T02:23:40;19.53;;;9.60;;
20114;SDS011;10218;42.874;25.320;2024-01-15T02:26:07;26.67;;;13.07;;
20114;SDS011;10218;42.874;25.320;2024-01-15T02:28:34;19.73;;;10.47;;
20114;SDS011;10218;42.874;25.320;2024-01-15T02:31:01;23.60;;;10.17;;
20114;SDS011;10218;42.874;25.320;2024-01-15T02:33:29;24.83;;;11.30;;
20114;SDS011;10218;42.874;25.320;2024-01-15T02:35:56;22.70;;;10.13;;
20114;SDS011;10218;42.874;25.320;2024-01-15T02:38:23;19.63;;;9.87;;
20114;SDS011;10218;42.874;25.320;2024-01-15T02:40:50;15.70;;;7.53;;
20114;SDS011;10218;42.874;25.320;2024-01-15T02:43:18;19.97;;;9.80;;
20114;SDS011;10218;42.874;25.320;2024-01-15T02:45:45;18.50;;;8.90;;
20114;SDS011;10218;42.874;25.320;2024-01-15T02:48:13;19.80;;;8.20;;
20114;SDS011;10218;42.874;25.320;2024-01-15T02:50:41;15.00;;;7.30;;
20114;SDS011;10218;42.874;25.320;2024-01-15T02:53:08;15.40;;;8.00;;
20114;SDS011;10218;42.874;25.320;2024-01-15T02:55:35;15.50;;;7.80;;
20114;SDS011;10218;42.874;25.320;2024-01-15T02:58:03;15.07;;;7.27;;
20114;SDS011;10218;42.874;25.320;2024-01-15T03:00:30;17.20;;;7.67;;
20114;SDS011;10218;42.874;25.320;2024-01-15T03:02:58;19.47;;;7.87;;
20114;SDS011;10218;42.874;25.320;2024-01-15T03:05:25;17.87;;;8.37;;
20114;SDS011;10218;42.874;25.320;2024-01-15T03:07:52;10.27;;;5.80;;
20114;SDS011;10218;42.874;25.320;2024-01-15T03:10:19;7.50;;;3.63;;
20114;SDS011;10218;42.874;25.320;2024-01-15T03:12:46;9.73;;;4.87;;
20114;SDS011;10218;42.874;25.320;2024-01-15T03:15:13;8.13;;;3.40;;
20114;SDS011;10218;42.874;25.320;2024-01-15T03:17:43;7.30;;;3.63;;
20114;SDS011;10218;42.874;25.320;2024-01-15T03:20:11;6.07;;;3.40;;
20114;SDS011;10218;42.874;25.320;2024-01-15T03:22:38;8.77;;;4.47;;
20114;SDS011;10218;42.874;25.320;2024-01-15T03:25:05;7.13;;;3.50;;
20114;SDS011;10218;42.874;25.320;2024-01-15T03:27:33;9.77;;;4.40;;
20114;SDS011;10218;42.874;25.320;2024-01-15T03:30:00;9.50;;;4.70;;
20114;SDS011;10218;42.874;25.320;2024-01-15T03:32:29;10.40;;;5.27;;
20114;SDS011;10218;42.874;25.320;2024-01-15T03:34:56;9.47;;;5.63;;
20114;SDS011;10218;42.874;25.320;2024-01-15T03:37:23;9.90;;;4.60;;
20114;SDS011;10218;42.874;25.320;2024-01-15T03:39:50;6.80;;;3.47;;
20114;SDS011;10218;42.874;25.320;2024-01-15T03:42:17;11.33;;;4.83;;
20114;SDS011;10218;42.874;25.320;2024-01-15T03:44:44;13.20;;;6.87;;
20114;SDS011;10218;42.874;25.320;2024-01-15T03:47:12;24.93;;;10.13;;
20114;SDS011;10218;42.874;25.320;2024-01-15T03:49:39;22.40;;;10.60;;
20114;SDS011;10218;42.874;25.320;2024-01-15T03:52:06;24.50;;;11.10;;
20114;SDS011;10218;42.874;25.320;2024-01-15T03:54:33;27.43;;;12.60;;
20114;SDS011;10218;42.874;25.320;2024-01-15T03:57:00;29.03;;;11.87;;
20114;SDS011;10218;42.874;25.320;2024-01-15T03:59:27;22.27;;;10.57;;
20114;SDS011;10218;42.874;25.320;2024-01-15T04:01:54;24.90;;;10.50;;
20114;SDS011;10218;42.874;25.320;2024-01-15T04:04:22;24.80;;;11.47;;
20114;SDS011;10218;42.874;25.320;2024-01-15T04:06:49;23.37;;;10.53;;
20114;SDS011;10218;42.874;25.320;2024-01-15T04:09:16;24.77;;;12.10;;
20114;SDS011;10218;42.874;25.320;2024-01-15T04:11:43;26.33;;;11.93;;
20114;SDS011;10218;42.874;25.320;2024-01-15T04:14:11;21.90;;;10.50;;
20114;SDS011;10218;42.874;25.320;2024-01-15T04:16:38;24.40;;;10.80;;
20114;SDS011;10218;42.874;25.320;2024-01-15T04:19:05;25.63;;;11.10;;
20114;SDS011;10218;42.874;25.320;2024-01-15T04:21:32;25.67;;;10.83;;
20114;SDS011;10218;42.874;25.320;2024-01-15T04:23:59;32.70;;;13.80;;
20114;SDS011;10218;42.874;25.320;2024-01-15T04:26:26;27.10;;;13.13;;
20114;SDS011;10218;42.874;25.320;2024-01-15T04:28:53;27.90;;;12.13;;
20114;SDS011;10218;42.874;25.320;2024-01-15T04:31:24;32.60;;;12.83;;
20114;SDS011;10218;42.874;25.320;2024-01-15T04:33:52;27.07;;;12.10;;
20114;SDS011;10218;42.874;25.320;2024-01-15T04:36:19;33.97;;;12.20;;
20114;SDS011;10218;42.874;25.320;2024-01-15T04:38:46;23.27;;;11.07;;
20114;SDS011;10218;42.874;25.320;2024-01-15T04:41:14;26.30;;;12.43;;
20114;SDS011;10218;42.874;25.320;2024-01-15T04:43:43;30.07;;;12.63;;
20114;SDS011;10218;42.874;25.320;2024-01-15T04:46:10;21.83;;;10.27;;
20114;SDS011;10218;42.874;25.320;2024-01-15T04:48:37;14.20;;;7.73;;
20114;SDS011;10218;42.874;25.320;2024-01-15T04:51:05;23.27;;;9.97;;
20114;SDS011;10218;42.874;25.320;2024-01-15T04:53:34;23.50;;;9.77;;
20114;SDS011;10218;42.874;25.320;2024-01-15T04:56:01;16.10;;;7.30;;
20114;SDS011;10218;42.874;25.320;2024-01-15T04:58:29;13.97;;;4.70;;
20114;SDS011;10218;42.874;25.320;2024-01-15T05:00:56;12.30;;;6.43;;
20114;SDS011;10218;42.874;25.320;2024-01-15T05:03:23;17.10;;;8.80;;
20114;SDS011;10218;42.874;25.320;2024-01-15T05:05:50;11.67;;;5.07;;
20114;SDS011;10218;42.874;25.320;2024-01-15T05:08:17;10.57;;;5.37;;
20114;SDS011;10218;42.874;25.320;2024-01-15T05:10:45;22.47;;;10.80;;
20114;SDS011;10218;42.874;25.320;2024-01-15T05:13:12;14.50;;;7.03;;
20114;SDS011;10218;42.874;25.320;2024-01-15T05:15:39;14.20;;;6.90;;
20114;SDS011;10218;42.874;25.320;2024-01-15T05:18:06;33.13;;;15.47;;
20114;SDS011;10218;42.874;25.320;2024-01-15T05:20:33;41.07;;;18.30;;
20114;SDS011;10218;42.874;25.320;2024-01-15T05:23:01;31.27;;;14.77;;
20114;SDS011;10218;42.874;25.320;2024-01-15T05:25:28;19.80;;;10.10;;
20114;SDS011;10218;42.874;25.320;2024-01-15T05:27:55;12.37;;;6.20;;
20114;SDS011;10218;42.874;25.320;2024-01-15T05:30:22;32.87;;;15.50;;
20114;SDS011;10218;42.874;25.320;2024-01-15T05:32:50;17.03;;;8.03;;
20114;SDS011;10218;42.874;25.320;2024-01-15T05:35:17;11.23;;;5.77;;
20114;SDS011;10218;42.874;25.320;2024-01-15T05:37:44;11.37;;;6.37;;
20114;SDS011;10218;42.874;25.320;2024-01-15T05:40:12;19.47;;;8.50;;
20114;SDS011;10218;42.874;25.320;2024-01-15T05:42:40;13.67;;;6.83;;
20114;SDS011;10218;42.874;25.320;2024-01-15T05:45:08;24.27;;;10.83;;
20114;SDS011;10218;42.874;25.320;2024-01-15T05:47:35;28.23;;;14.13;;
20114;SDS011;10218;42.874;25.320;2024-01-15T05:50:02;31.27;;;14.23;;
20114;SDS011;10218;42.874;25.320;2024-01-15T05:52:30;27.17;;;12.23;;
20114;SDS011;10218;42.874;25.320;2024-01-15T05:54:57;29.17;;;14.27;;
20114;SDS011;10218;42.874;25.320;2024-01-15T05:57:24;22.23;;;10.20;;
20114;SDS011;10218;42.874;25.320;2024-01-15T05:59:51;16.67;;;8.63;;
20114;SDS011;10218;42.874;25.320;2024-01-15T06:02:19;18.43;;;9.10;;
20114;SDS011;10218;42.874;25.320;2024-01-15T06:04:46;27.83;;;13.37;;
20114;SDS011;10218;42.874;25.320;2024-01-15T06:07:13;34.50;;;13.97;;
20114;SDS011;10218;42.874;25.320;2024-01-15T06:09:40;22.93;;;10.33;;
20114;SDS011;10218;42.874;25.320;2024-01-15T06:12:08;33.63;;;16.63;;
20114;SDS011;10218;42.874;25.320;2024-01-15T06:14:38;35.87;;;16.77;;
20114;SDS011;10218;42.874;25.320;2024-01-15T06:17:05;19.17;;;9.03;;
20114;SDS011;10218;42.874;25.320;2024-01-15T06:19:32;21.17;;;10.27;;
20114;SDS011;10218;42.874;25.320;2024-01-15T06:21:59;20.67;;;9.23;;
20114;SDS011;10218;42.874;25.320;2024-01-15T06:24:26;24.37;;;10.77;;
20114;SDS011;10218;42.874;25.320;2024-01-15T06:26:53;30.30;;;15.97;;
20114;SDS011;10218;42.874;25.320;2024-01-15T06:29:20;24.80;;;12.30;;
20114;SDS011;10218;42.874;25.320;2024-01-15T06:31:47;41.07;;;18.00;;
20114;SDS011;10218;42.874;25.320;2024-01-15T06:34:15;23.83;;;10.67;;
20114;SDS011;10218;42.874;25.320;2024-01-15T06:36:42;17.63;;;9.20;;
20114;SDS011;10218;42.874;25.320;2024-01-15T06:39:09;11.87;;;6.93;;
20114;SDS011;10218;42.874;25.320;2024-01-15T06:41:37;13.30;;;6.30;;
20114;SDS011;10218;42.874;25.320;2024-01-15T06:44:10;23.87;;;11.87;;
20114;SDS011;10218;42.874;25.320;2024-01-15T06:46:47;22.73;;;11.10;;
20114;SDS011;10218;42.874;25.320;2024-01-15T06:49:14;23.47;;;8.20;;
20114;SDS011;10218;42.874;25.320;2024-01-15T06:51:42;30.50;;;14.27;;
20114;SDS011;10218;42.874;25.320;2024-01-15T06:54:10;40.27;;;19.03;;
20114;SDS011;10218;42.874;25.320;2024-01-15T06:56:37;41.37;;;20.80;;
20114;SDS011;10218;42.874;25.320;2024-01-15T06:59:04;50.73;;;23.70;;
20114;SDS011;10218;42.874;25.320;2024-01-15T07:01:31;26.83;;;13.57;;
20114;SDS011;10218;42.874;25.320;2024-01-15T07:03:58;33.17;;;17.13;;
20114;SDS011;10218;42.874;25.320;2024-01-15T07:06:26;34.63;;;16.70;;
20114;SDS011;10218;42.874;25.320;2024-01-15T07:08:53;37.73;;;20.23;;
20114;SDS011;10218;42.874;25.320;2024-01-15T07:11:20;38.07;;;19.97;;
20114;SDS011;10218;42.874;25.320;2024-01-15T07:13:47;42.10;;;21.57;;
20114;SDS011;10218;42.874;25.320;2024-01-15T07:16:14;43.83;;;23.30;;
20114;SDS011;10218;42.874;25.320;2024-01-15T07:18:48;46.70;;;24.70;;
20114;SDS011;10218;42.874;25.320;2024-01-15T07:21:15;48.33;;;23.30;;
20114;SDS011;10218;42.874;25.320;2024-01-15T07:23:42;49.67;;;23.77;;
20114;SDS011;10218;42.874;25.320;2024-01-15T07:26:09;52.67;;;24.90;;
20114;SDS011;10218;42.874;25.320;2024-01-15T07:28:36;52.97;;;25.53;;
20114;SDS011;10218;42.874;25.320;2024-01-15T07:31:03;50.80;;;26.10;;
20114;SDS011;10218;42.874;25.320;2024-01-15T07:33:33;46.33;;;24.10;;
20114;SDS011;10218;42.874;25.320;2024-01-15T07:36:00;48.63;;;26.23;;
20114;SDS011;10218;42.874;25.320;2024-01-15T07:38:29;49.27;;;26.67;;
20114;SDS011;10218;42.874;25.320;2024-01-15T07:40:56;47.67;;;26.33;;
20114;SDS011;10218;42.874;25.320;2024-01-15T07:43:23;46.17;;;25.03;;
20114;SDS011;10218;42.874;25.320;2024-01-15T07:45:50;54.43;;;28.47;;
20114;SDS011;10218;42.874;25.320;2024-01-15T07:48:18;58.67;;;30.60;;
20114;SDS011;10218;42.874;25.320;2024-01-15T07:50:45;43.90;;;25.17;;
20114;SDS011;10218;42.874;25.320;2024-01-15T07:53:12;40.60;;;22.70;;
20114;SDS011;10218;42.874;25.320;2024-01-15T07:55:39;34.70;;;22.27;;
20114;SDS011;10218;42.874;25.320;2024-01-15T07:58:06;35.60;;;20.43;;
20114;SDS011;10218;42.874;25.320;2024-01-15T08:00:37;38.93;;;23.80;;
20114;SDS011;10218;42.874;25.320;2024-01-15T08:03:04;39.20;;;22.97;;
20114;SDS011;10218;42.874;25.320;2024-01-15T08:05:31;51.47;;;27.20;;
20114;SDS011;10218;42.874;25.320;2024-01-15T08:07:59;62.77;;;33.90;;
20114;SDS011;10218;42.874;25.320;2024-01-15T08:10:26;64.47;;;35.67;;
20114;SDS011;10218;42.874;25.320;2024-01-15T08:12:53;48.13;;;27.43;;
20114;SDS011;10218;42.874;25.320;2024-01-15T08:15:20;50.27;;;29.03;;
20114;SDS011;10218;42.874;25.320;2024-01-15T08:17:47;49.03;;;29.03;;
20114;SDS011;10218;42.874;25.320;2024-01-15T08:20:15;46.00;;;26.70;;
20114;SDS011;10218;42.874;25.320;2024-01-15T08:22:42;40.40;;;25.30;;
20114;SDS011;10218;42.874;25.320;2024-01-15T08:25:10;42.43;;;26.27;;
20114;SDS011;10218;42.874;25.320;2024-01-15T08:27:37;45.10;;;28.07;;
20114;SDS011;10218;42.874;25.320;2024-01-15T08:30:05;37.07;;;23.33;;
20114;SDS011;10218;42.874;25.320;2024-01-15T08:32:33;46.70;;;27.13;;
20114;SDS011;10218;42.874;25.320;2024-01-15T08:35:02;52.13;;;28.93;;
20114;SDS011;10218;42.874;25.320;2024-01-15T08:37:30;71.93;;;40.17;;
20114;SDS011;10218;42.874;25.320;2024-01-15T08:39:58;49.40;;;29.00;;
20114;SDS011;10218;42.874;25.320;2024-01-15T08:42:25;85.77;;;41.93;;
20114;SDS011;10218;42.874;25.320;2024-01-15T08:44:52;90.13;;;44.97;;
20114;SDS011;10218;42.874;25.320;2024-01-15T08:47:19;82.47;;;44.73;;
20114;SDS011;10218;42.874;25.320;2024-01-15T08:49:46;43.40;;;27.07;;
20114;SDS011;10218;42.874;25.320;2024-01-15T08:52:13;41.17;;;23.03;;
20114;SDS011;10218;42.874;25.320;2024-01-15T08:54:41;30.23;;;16.90;;
20114;SDS011;10218;42.874;25.320;2024-01-15T08:57:07;33.23;;;17.97;;
20114;SDS011;10218;42.874;25.320;2024-01-15T08:59:34;39.47;;;21.93;;
20114;SDS011;10218;42.874;25.320;2024-01-15T09:02:02;32.17;;;18.50;;
20114;SDS011;10218;42.874;25.320;2024-01-15T09:04:29;30.50;;;16.70;;
20114;SDS011;10218;42.874;25.320;2024-01-15T09:06:56;41.33;;;20.80;;
20114;SDS011;10218;42.874;25.320;2024-01-15T09:09:23;41.80;;;22.50;;
20114;SDS011;10218;42.874;25.320;2024-01-15T09:11:51;24.70;;;15.10;;
20114;SDS011;10218;42.874;25.320;2024-01-15T09:14:18;29.13;;;15.03;;
20114;SDS011;10218;42.874;25.320;2024-01-15T09:16:49;23.50;;;13.00;;
20114;SDS011;10218;42.874;25.320;2024-01-15T09:19:17;16.53;;;9.43;;
20114;SDS011;10218;42.874;25.320;2024-01-15T09:21:44;18.03;;;10.10;;
20114;SDS011;10218;42.874;25.320;2024-01-15T09:24:12;23.43;;;12.13;;
20114;SDS011;10218;42.874;25.320;2024-01-15T09:26:39;14.43;;;8.97;;
20114;SDS011;10218;42.874;25.320;2024-01-15T09:29:06;17.20;;;9.00;;
20114;SDS011;10218;42.874;25.320;2024-01-15T09:31:34;13.67;;;7.83;;
20114;SDS011;10218;42.874;25.320;2024-01-15T09:34:01;11.67;;;6.93;;
20114;SDS011;10218;42.874;25.320;2024-01-15T09:36:28;13.60;;;8.10;;
20114;SDS011;10218;42.874;25.320;2024-01-15T09:38:56;10.60;;;6.67;;
20114;SDS011;10218;42.874;25.320;2024-01-15T09:41:24;10.30;;;5.53;;
20114;SDS011;10218;42.874;25.320;2024-01-15T09:43:52;10.43;;;5.87;;
20114;SDS011;10218;42.874;25.320;2024-01-15T09:46:19;11.73;;;7.10;;
20114;SDS011;10218;42.874;25.320;2024-01-15T09:48:47;10.00;;;5.87;;
20114;SDS011;10218;42.874;25.320;2024-01-15T09:51:14;9.47;;;5.90;;
20114;SDS011;10218;42.874;25.320;2024-01-15T09:53:42;10.27;;;5.80;;
20114;SDS011;10218;42.874;25.320;2024-01-15T09:56:10;11.60;;;6.70;;
20114;SDS011;10218;42.874;25.320;2024-01-15T09:58:38;9.70;;;5.90;;
20114;SDS011;10218;42.874;25.320;2024-01-15T10:01:06;12.73;;;6.80;;
20114;SDS011;10218;42.874;25.320;2024-01-15T10:03:34;11.57;;;7.07;;
20114;SDS011;10218;42.874;25.320;2024-01-15T10:06:02;9.83;;;6.27;;
20114;SDS011;10218;42.874;25.320;2024-01-15T10:08:29;13.13;;;7.03;;
20114;SDS011;10218;42.874;25.320;2024-01-15T10:10:57;10.33;;;5.73;;
20114;SDS011;10218;42.874;25.320;2024-01-15T10:13:24;13.00;;;7.17;;
20114;SDS011;10218;42.874;25.320;2024-01-15T10:15:52;13.73;;;7.83;;
20114;SDS011;10218;42.874;25.320;2024-01-15T10:18:20;15.63;;;8.43;;
20114;SDS011;10218;42.874;25.320;2024-01-15T10:20:47;16.03;;;9.27;;
20114;SDS011;10218;42.874;25.320;2024-01-15T10:23:14;15.63;;;9.33;;
20114;SDS011;10218;42.874;25.320;2024-01-15T10:25:42;16.70;;;8.73;;
20114;SDS011;10218;42.874;25.320;2024-01-15T10:28:09;14.90;;;9.13;;
20114;SDS011;10218;42.874;25.320;2024-01-15T10:30:37;20.53;;;10.80;;
20114;SDS011;10218;42.874;25.320;2024-01-15T10:33:05;13.97;;;8.10;;
20114;SDS011;10218;42.874;25.320;2024-01-15T10:35:33;10.10;;;5.40;;
20114;SDS011;10218;42.874;25.320;2024-01-15T10:38:01;10.87;;;6.27;;
20114;SDS011;10218;42.874;25.320;2024-01-15T10:40:29;10.50;;;6.00;;
20114;SDS011;10218;42.874;25.320;2024-01-15T10:42:57;8.40;;;5.40;;
20114;SDS011;10218;42.874;25.320;2024-01-15T10:45:24;10.07;;;5.83;;
20114;SDS011;10218;42.874;25.320;2024-01-15T10:47:53;7.83;;;5.00;;
20114;SDS011;10218;42.874;25.320;2024-01-15T10:50:21;7.03;;;4.63;;
20114;SDS011;10218;42.874;25.320;2024-01-15T10:52:48;8.83;;;6.07;;
20114;SDS011;10218;42.874;25.320;2024-01-15T10:55:18;11.30;;;7.20;;
20114;SDS011;10218;42.874;25.320;2024-01-15T10:57:47;8.67;;;5.93;;
20114;SDS011;10218;42.874;25.320;2024-01-15T11:00:16;8.50;;;5.37;;
20114;SDS011;10218;42.874;25.320;2024-01-15T11:02:43;7.90;;;5.00;;
20114;SDS011;10218;42.874;25.320;2024-01-15T11:05:11;9.37;;;5.53;;
20114;SDS011;10218;42.874;25.320;2024-01-15T11:07:39;11.03;;;5.80;;
20114;SDS011;10218;42.874;25.320;2024-01-15T11:10:08;9.63;;;6.10;;
20114;SDS011;10218;42.874;25.320;2024-01-15T11:13:09;9.77;;;5.67;;
20114;SDS011;10218;42.874;25.320;2024-01-15T11:18:23;9.80;;;5.73;;
20114;SDS011;10218;42.874;25.320;2024-01-15T11:29:29;8.40;;;4.40;;
20114;SDS011;10218;42.874;25.320;2024-01-15T11:32:02;11.33;;;5.87;;
20114;SDS011;10218;42.874;25.320;2024-01-15T11:37:26;6.37;;;4.00;;
20114;SDS011;10218;42.874;25.320;2024-01-15T11:39:55;7.97;;;4.57;;
20114;SDS011;10218;42.874;25.320;2024-01-15T11:42:27;8.43;;;5.60;;
20114;SDS011;10218;42.874;25.320;2024-01-15T11:44:55;7.80;;;4.70;;
20114;SDS011;10218;42.874;25.320;2024-01-15T11:47:30;8.40;;;4.43;;
20114;SDS011;10218;42.874;25.320;2024-01-15T11:50:13;8.30;;;5.00;;
20114;SDS011;10218;42.874;25.320;2024-01-15T11:52:41;10.87;;;6.90;;
20114;SDS011;10218;42.874;25.320;2024-01-15T11:57:46;14.63;;;8.00;;
20114;SDS011;10218;42.874;25.320;2024-01-15T12:00:17;8.10;;;5.00;;
20114;SDS011;10218;42.874;25.320;2024-01-15T12:02:45;9.43;;;5.80;;
20114;SDS011;10218;42.874;25.320;2024-01-15T12:05:14;7.73;;;5.10;;
20114;SDS011;10218;42.874;25.320;2024-01-15T12:07:43;8.47;;;5.50;;
20114;SDS011;10218;42.874;25.320;2024-01-15T12:10:15;6.93;;;4.47;;
20114;SDS011;10218;42.874;25.320;2024-01-15T12:12:59;9.17;;;5.60;;
20114;SDS011;10218;42.874;25.320;2024-01-15T12:15:31;9.03;;;5.90;;
20114;SDS011;10218;42.874;25.320;2024-01-15T12:17:59;9.63;;;6.33;;
20114;SDS011;10218;42.874;25.320;2024-01-15T12:20:29;8.67;;;5.90;;
20114;SDS011;10218;42.874;25.320;2024-01-15T12:22:58;8.80;;;4.77;;
20114;SDS011;10218;42.874;25.320;2024-01-15T12:25:25;11.13;;;5.53;;
20114;SDS011;10218;42.874;25.320;2024-01-15T12:27:56;17.57;;;10.67;;
20114;SDS011;10218;42.874;25.320;2024-01-15T12:30:26;15.20;;;9.40;;
20114;SDS011;10218;42.874;25.320;2024-01-15T12:32:54;22.33;;;14.50;;
20114;SDS011;10218;42.874;25.320;2024-01-15T12:35:21;24.50;;;15.13;;
20114;SDS011;10218;42.874;25.320;2024-01-15T12:37:50;15.50;;;10.63;;
20114;SDS011;10218;42.874;25.320;2024-01-15T12:40:21;12.20;;;5.70;;
20114;SDS011;10218;42.874;25.320;2024-01-15T12:42:49;9.23;;;6.00;;
20114;SDS011;10218;42.874;25.320;2024-01-15T12:45:17;9.20;;;5.37;;
20114;SDS011;10218;42.874;25.320;2024-01-15T12:47:44;17.13;;;10.30;;
20114;SDS011;10218;42.874;25.320;2024-01-15T12:50:13;23.13;;;10.00;;
20114;SDS011;10218;42.874;25.320;2024-01-15T12:52:42;14.33;;;7.33;;
20114;SDS011;10218;42.874;25.320;2024-01-15T12:55:09;9.97;;;5.73;;
20114;SDS011;10218;42.874;25.320;2024-01-15T12:57:37;10.50;;;6.57;;
20114;SDS011;10218;42.874;25.320;2024-01-15T13:00:05;9.40;;;6.20;;
20114;SDS011;10218;42.874;25.320;2024-01-15T13:02:34;25.27;;;11.13;;
20114;SDS011;10218;42.874;25.320;2024-01-15T13:05:02;15.47;;;8.63;;
20114;SDS011;10218;42.874;25.320;2024-01-15T13:07:31;11.70;;;6.47;;
20114;SDS011;10218;42.874;25.320;2024-01-15T13:09:58;8.03;;;5.53;;
20114;SDS011;10218;42.874;25.320;2024-01-15T13:12:25;9.73;;;6.00;;
20114;SDS011;10218;42.874;25.320;2024-01-15T13:14:53;10.40;;;6.00;;
20114;SDS011;10218;42.874;25.320;2024-01-15T13:17:20;8.90;;;5.63;;
20114;SDS011;10218;42.874;25.320;2024-01-15T13:19:50;8.17;;;5.67;;
20114;SDS011;10218;42.874;25.320;2024-01-15T13:22:17;10.30;;;5.97;;
20114;SDS011;10218;42.874;25.320;2024-01-15T13:24:44;11.83;;;5.83;;
20114;SDS011;10218;42.874;25.320;2024-01-15T13:27:12;11.23;;;5.77;;
20114;SDS011;10218;42.874;25.320;2024-01-15T13:29:40;8.40;;;5.53;;
20114;SDS011;10218;42.874;25.320;2024-01-15T13:32:07;17.57;;;8.57;;
20114;SDS011;10218;42.874;25.320;2024-01-15T13:34:34;16.77;;;9.10;;
20114;SDS011;10218;42.874;25.320;2024-01-15T13:37:02;55.50;;;29.13;;
20114;SDS011;10218;42.874;25.320;2024-01-15T13:39:29;25.20;;;13.97;;
20114;SDS011;10218;42.874;25.320;2024-01-15T13:41:59;10.40;;;6.23;;
20114;SDS011;10218;42.874;25.320;2024-01-15T13:44:27;13.00;;;8.40;;
20114;SDS011;10218;42.874;25.320;2024-01-15T13:46:54;9.97;;;5.67;;
20114;SDS011;10218;42.874;25.320;2024-01-15T13:49:21;13.67;;;8.57;;
20114;SDS011;10218;42.874;25.320;2024-01-15T13:51:48;20.13;;;12.07;;
20114;SDS011;10218;42.874;25.320;2024-01-15T13:54:16;78.27;;;55.30;;
20114;SDS011;10218;42.874;25.320;2024-01-15T13:56:43;13.17;;;8.23;;
20114;SDS011;10218;42.874;25.320;2024-01-15T13:59:11;26.70;;;18.77;;
20114;SDS011;10218;42.874;25.320;2024-01-15T14:01:42;13.93;;;9.93;;
20114;SDS011;10218;42.874;25.320;2024-01-15T14:04:09;21.00;;;11.97;;
20114;SDS011;10218;42.874;25.320;2024-01-15T14:06:36;12.87;;;8.00;;
20114;SDS011;10218;42.874;25.320;2024-01-15T14:09:03;18.60;;;12.40;;
20114;SDS011;10218;42.874;25.320;2024-01-15T14:11:31;9.43;;;6.57;;
20114;SDS011;10218;42.874;25.320;2024-01-15T14:13:58;15.53;;;7.30;;
20114;SDS011;10218;42.874;25.320;2024-01-15T14:16:25;12.80;;;7.67;;
20114;SDS011;10218;42.874;25.320;2024-01-15T14:18:52;10.23;;;5.07;;
20114;SDS011;10218;42.874;25.320;2024-01-15T14:21:19;15.37;;;10.20;;
20114;SDS011;10218;42.874;25.320;2024-01-15T14:23:47;14.33;;;9.37;;
20114;SDS011;10218;42.874;25.320;2024-01-15T14:26:14;8.37;;;5.67;;
20114;SDS011;10218;42.874;25.320;2024-01-15T14:28:42;18.13;;;12.43;;
20114;SDS011;10218;42.874;25.320;2024-01-15T14:31:09;10.20;;;6.27;;
20114;SDS011;10218;42.874;25.320;2024-01-15T14:33:36;11.03;;;6.97;;
20114;SDS011;10218;42.874;25.320;2024-01-15T14:36:05;11.73;;;6.50;;
20114;SDS011;10218;42.874;25.320;2024-01-15T14:38:32;21.17;;;13.17;;